Time;durP1;ratioP1;P1;durP2;ratioP2;P2;SDS_P1;SDS_P2;PMS_P1;PMS_P2;Temp;Humidity;BMP_temperature;BMP_pressure;BME280_temperature;BME280_humidity;BME280_pressure;Samples;Min_cycle;Max_cycle;Signal;HPM_P1;HPM_P2
2021/04/23 00:00:57;;;;;;;9.85;4.43;;;;;;;7.24;58.73;101354.91;5112039;28;20043;-81
2021/04/23 00:03:48;;;;;;;15.82;5.50;;;;;;;7.18;58.65;101357.66;5115330;28;20067;-82
2021/04/23 00:06:33;;;;;;;;;;;;;;;7.13;58.75;101356.88;5118209;28;20055;-82
2021/04/23 00:09:08;;;;;;;10.60;5.13;;;;;;;7.04;58.99;101364.94;5120141;28;20273;-82
2021/04/23 00:11:42;;;;;;;12.75;4.95;;;;;;;6.99;59.06;101356.25;5119047;28;20074;-83
2021/04/23 00:14:13;;;;;;;15.10;5.88;;;;;;;6.91;59.36;101359.00;5124626;28;20039;-81
2021/04/23 00:16:47;;;;;;;17.05;5.45;;;;;;;6.86;59.69;101354.72;5120696;28;20048;-81
2021/04/23 00:19:20;;;;;;;14.07;5.63;;;;;;;6.82;59.94;101351.25;5111007;28;20058;-81
2021/04/23 00:21:50;;;;;;;11.98;5.20;;;;;;;6.78;59.75;101356.59;5113549;28;20047;-82
2021/04/23 00:24:17;;;;;;;14.70;5.60;;;;;;;6.78;60.14;101346.91;5111314;28;20081;-80
2021/04/23 00:26:44;;;;;;;12.80;4.85;;;;;;;6.81;60.59;101353.91;5119533;28;20115;-81
2021/04/23 00:29:11;;;;;;;16.45;5.60;;;;;;;6.85;60.49;101348.56;5124120;28;20067;-81
2021/04/23 00:31:38;;;;;;;13.93;5.32;;;;;;;6.82;60.11;101350.38;5121936;28;20048;-79
2021/04/23 00:34:05;;;;;;;13.35;5.45;;;;;;;6.79;60.50;101343.41;5120691;28;20495;-80
2021/04/23 00:36:32;;;;;;;14.00;5.25;;;;;;;6.81;60.00;101346.00;5124793;28;20051;-80
2021/04/23 00:38:59;;;;;;;12.27;4.95;;;;;;;6.82;59.91;101348.63;5104190;28;20094;-80
2021/04/23 00:41:30;;;;;;;10.68;5.22;;;;;;;6.81;59.98;101352.16;5106993;28;20050;-81
2021/04/23 00:43:57;;;;;;;12.10;4.93;;;;;;;6.78;60.02;101353.94;5107000;27;20051;-80
2021/04/23 00:46:29;;;;;;;10.95;5.60;;;;;;;6.77;59.82;101352.25;5119662;27;20097;-80
2021/04/23 00:48:56;;;;;;;13.40;6.03;;;;;;;6.68;59.89;101345.34;5126243;28;20047;-80
2021/04/23 00:51:30;;;;;;;12.18;5.50;;;;;;;6.75;60.36;101352.25;5126353;28;20135;-81
2021/04/23 00:53:58;;;;;;;15.63;5.80;;;;;;;6.74;59.90;101355.78;5131040;27;20066;-79
2021/04/23 00:56:31;;;;;;;11.98;5.30;;;;;;;6.69;59.45;101344.44;5122680;27;20078;-80
2021/04/23 00:58:58;;;;;;;12.57;5.30;;;;;;;6.66;59.67;101349.75;5136347;27;20043;-82
2021/04/23 01:01:28;;;;;;;12.68;5.80;;;;;;;6.63;59.39;101353.31;5133593;28;20058;-80
2021/04/23 01:03:58;;;;;;;13.77;5.28;;;;;;;6.59;60.09;101343.75;5130934;28;20091;-81
2021/04/23 01:06:28;;;;;;;11.52;5.30;;;;;;;6.56;60.03;101350.81;5136529;27;20048;-79
2021/04/23 01:08:57;;;;;;;11.03;5.10;;;;;;;6.54;59.42;101358.72;5114457;28;20115;-80
2021/04/23 01:11:26;;;;;;;14.57;5.03;;;;;;;6.46;59.42;101352.69;5120521;28;20051;-79
2021/04/23 01:13:53;;;;;;;12.30;5.45;;;;;;;6.41;59.94;101359.78;5130574;28;20520;-79
2021/04/23 01:16:25;;;;;;;14.65;5.28;;;;;;;6.31;59.94;101355.53;5135752;28;20043;-81
2021/04/23 01:18:53;;;;;;;14.73;5.57;;;;;;;6.31;60.25;101360.78;5135038;28;20095;-79
2021/04/23 01:21:25;;;;;;;15.68;5.47;;;;;;;6.30;60.29;101365.19;5124413;28;20052;-80
2021/04/23 01:23:55;;;;;;;12.10;5.43;;;;;;;6.26;60.69;101354.75;5113371;28;20551;-80
2021/04/23 01:26:26;;;;;;;13.50;5.57;;;;;;;6.26;60.60;101365.28;5117143;27;20095;-81
2021/04/23 01:28:55;;;;;;;10.95;5.43;;;;;;;6.24;60.82;101357.41;5119430;27;20130;-81
2021/04/23 01:31:28;;;;;;;14.32;5.03;;;;;;;6.18;60.60;101356.59;5120321;27;20130;-81
2021/04/23 01:34:06;;;;;;;10.18;4.97;;;;;;;6.20;61.44;101354.81;5114561;27;20432;-80
2021/04/23 01:36:35;;;;;;;10.13;5.00;;;;;;;6.23;61.03;101358.28;5119871;27;20154;-81
2021/04/23 01:39:09;;;;;;;12.48;5.53;;;;;;;6.18;61.64;101357.47;5116983;27;20497;-81
2021/04/23 01:41:35;;;;;;;11.05;4.97;;;;;;;6.15;61.95;101354.88;5102388;28;20035;-81
2021/04/23 01:44:05;;;;;;;11.70;5.05;;;;;;;6.09;61.84;101359.38;5127498;27;20020;-83
2021/04/23 01:46:33;;;;;;;12.75;5.78;;;;;;;6.08;61.69;101363.75;5131177;27;20034;-82
2021/04/23 01:49:06;;;;;;;14.52;5.40;;;;;;;6.06;62.30;101357.66;5140839;27;20047;-80
2021/04/23 01:51:32;;;;;;;11.95;5.43;;;;;;;6.05;62.42;101357.66;5139698;27;20035;-80
2021/04/23 01:53:58;;;;;;;12.88;5.65;;;;;;;6.06;61.78;101370.78;5144989;27;20078;-80
2021/04/23 01:56:25;;;;;;;16.10;5.78;;;;;;;6.01;62.06;101372.59;5127138;28;20131;-80
2021/04/23 01:58:51;;;;;;;13.65;5.45;;;;;;;5.96;62.75;101375.31;5121712;27;20040;-81
2021/04/23 02:01:18;;;;;;;8.38;4.97;;;;;;;5.98;62.77;101372.66;5126575;27;20044;-80
2021/04/23 02:03:47;;;;;;;12.20;5.28;;;;;;;5.95;62.78;101368.31;5103914;28;20052;-81
2021/04/23 02:06:16;;;;;;;12.25;5.78;;;;;;;5.97;63.41;101377.06;5117958;27;20076;-81
2021/04/23 02:08:42;;;;;;;12.65;6.07;;;;;;;5.91;63.23;101373.63;5117344;27;20468;-81
2021/04/23 02:11:13;;;;;;;10.98;5.40;;;;;;;5.94;63.33;101390.22;5113391;27;20454;-81
2021/04/23 02:13:40;;;;;;;;;;;;;;;5.93;63.49;101385.84;5111069;28;20485;-82
2021/04/23 02:16:09;;;;;;;10.80;5.43;;;;;;;5.85;63.28;101379.78;5097118;27;19927;-82
2021/04/23 02:18:35;;;;;;;11.45;5.75;;;;;;;5.85;63.70;101390.28;5116262;27;20072;-81
2021/04/23 02:21:04;;;;;;;12.45;5.88;;;;;;;5.84;63.89;101400.81;5108977;27;20043;-82
2021/04/23 02:23:31;;;;;;;12.10;5.70;;;;;;;5.79;63.86;101387.75;5110689;28;20044;-82
2021/04/23 02:25:57;;;;;;;14.10;5.63;;;;;;;5.81;64.18;101393.88;5125775;27;20099;-80
2021/04/23 02:28:23;;;;;;;12.18;5.47;;;;;;;5.75;63.68;101390.41;5128236;27;20430;-80
2021/04/23 02:30:59;;;;;;;13.05;5.43;;;;;;;5.68;64.19;101394.00;5099846;28;20111;-81
2021/04/23 02:33:26;;;;;;;12.82;5.30;;;;;;;5.71;64.73;101396.59;5127842;27;20043;-81
2021/04/23 02:35:54;;;;;;;12.73;5.70;;;;;;;5.61;64.10;101394.06;5129332;28;20028;-80
2021/04/23 02:38:22;;;;;;;11.10;5.28;;;;;;;5.64;64.77;101406.31;5127975;28;20055;-80
2021/04/23 02:40:49;;;;;;;13.25;6.13;;;;;;;5.63;64.65;101402.81;5094601;28;20097;-81
2021/04/23 02:43:22;;;;;;;12.45;5.50;;;;;;;5.67;64.68;101403.63;5115316;27;20052;-82
2021/04/23 02:45:52;;;;;;;9.38;5.53;;;;;;;5.68;64.17;101400.13;5108506;27;20064;-80
2021/04/23 02:48:22;;;;;;;13.38;5.75;;;;;;;5.69;64.26;101403.63;5110558;27;20400;-81
2021/04/23 02:50:54;;;;;;;9.90;5.93;;;;;;;5.66;64.57;101401.91;5115513;27;20059;-82
2021/04/23 02:53:23;;;;;;;13.30;5.50;;;;;;;5.63;64.52;101401.94;5097666;28;20051;-82
2021/04/23 02:55:50;;;;;;;10.02;6.10;;;;;;;5.63;64.24;101412.47;5108957;27;20043;-80
2021/04/23 02:58:19;;;;;;;13.40;5.70;;;;;;;5.61;64.12;101415.09;5110587;27;20484;-82
2021/04/23 03:00:49;;;;;;;15.07;6.22;;;;;;;5.61;64.10;101408.97;5095751;28;20044;-82
2021/04/23 03:03:15;;;;;;;9.55;5.63;;;;;;;5.61;64.29;101419.47;5113007;27;20135;-82
2021/04/23 03:05:44;;;;;;;15.38;6.32;;;;;;;5.57;64.29;101423.03;5111921;27;20062;-82
2021/04/23 03:08:12;;;;;;;13.88;6.15;;;;;;;5.51;64.59;101417.84;5130040;27;20080;-80
2021/04/23 03:10:42;;;;;;;10.95;6.10;;;;;;;5.51;65.14;101423.94;5129754;27;20044;-80
2021/04/23 03:13:12;;;;;;;16.40;5.82;;;;;;;5.48;64.87;101412.63;5125505;28;20047;-79
2021/04/23 03:15:41;;;;;;;14.68;6.35;;;;;;;5.52;65.49;101425.69;5119197;28;20092;-81
2021/04/23 03:18:11;;;;;;;13.63;6.90;;;;;;;5.47;65.30;101421.38;5118158;27;20071;-81
2021/04/23 03:20:39;;;;;;;12.88;6.28;;;;;;;5.47;65.68;101417.00;5110165;27;20610;-82
2021/04/23 03:23:07;;;;;;;12.55;5.90;;;;;;;5.44;65.93;101427.53;5110503;27;20052;-81
2021/04/23 03:25:35;;;;;;;16.88;6.95;;;;;;;5.34;65.77;101425.00;5109203;28;20198;-82
2021/04/23 03:28:03;;;;;;;12.70;6.75;;;;;;;5.24;66.18;101430.31;5122416;27;20135;-79
2021/04/23 03:30:32;;;;;;;17.13;6.57;;;;;;;5.16;66.79;101432.16;5110688;28;20043;-82
2021/04/23 03:33:01;;;;;;;17.73;6.93;;;;;;;5.09;66.78;101437.47;5114246;28;20040;-83
2021/04/23 03:35:29;;;;;;;14.63;6.50;;;;;;;5.03;66.70;101433.16;5091177;28;20040;-80
2021/04/23 03:37:57;;;;;;;11.15;6.70;;;;;;;4.99;67.25;101439.31;5117231;28;20055;-81
2021/04/23 03:40:25;;;;;;;12.57;7.10;;;;;;;5.02;67.43;101441.03;5119705;28;20115;-81
2021/04/23 03:42:52;;;;;;;13.82;6.45;;;;;;;4.98;68.03;101431.44;5117014;28;20047;-80
2021/04/23 03:45:22;;;;;;;12.32;6.57;;;;;;;5.05;67.29;101444.47;5117914;28;20048;-79
2021/04/23 03:47:49;;;;;;;15.77;6.75;;;;;;;5.04;66.93;101444.50;5115973;28;20112;-78
2021/04/23 03:50:19;;;;;;;16.75;8.00;;;;;;;5.02;67.63;101451.53;5124356;28;20122;-79
2021/04/23 03:52:45;;;;;;;14.68;6.78;;;;;;;5.03;67.55;101448.03;5121212;28;20123;-79
2021/04/23 03:55:17;;;;;;;15.52;6.65;;;;;;;5.06;67.74;101450.59;5118824;28;20075;-81
2021/04/23 03:57:43;;;;;;;14.05;6.40;;;;;;;5.05;67.11;101459.34;5117086;28;20043;-79
2021/04/23 04:00:13;;;;;;;15.68;7.32;;;;;;;5.00;66.70;101456.78;5120441;28;20048;-79
2021/04/23 04:02:40;;;;;;;14.10;6.70;;;;;;;4.90;67.81;101444.59;5139494;28;20118;-79
2021/04/23 04:05:08;;;;;;;14.00;6.25;;;;;;;4.92;67.44;101459.47;5133439;28;20065;-79
2021/04/23 04:07:40;;;;;;;12.63;6.32;;;;;;;4.92;67.60;101466.47;5118524;28;20473;-79
2021/04/23 04:10:09;;;;;;;12.68;6.50;;;;;;;4.86;67.14;101462.16;5119168;27;20491;-78
2021/04/23 04:12:35;;;;;;;11.98;6.10;;;;;;;4.83;68.28;101464.78;5124438;27;20480;-78
2021/04/23 04:15:01;;;;;;;16.75;7.10;;;;;;;4.89;67.59;101469.09;5126226;27;20050;-80
2021/04/23 04:17:28;;;;;;;15.85;6.80;;;;;;;4.89;67.42;101463.84;5123363;27;20044;-80
2021/04/23 04:19:55;;;;;;;19.15;7.25;;;;;;;4.93;67.46;101476.06;5113864;27;20051;-79
2021/04/23 04:22:21;;;;;;;17.33;6.95;;;;;;;4.94;67.71;101472.56;5093215;28;20044;-80
2021/04/23 04:24:47;;;;;;;12.32;6.47;;;;;;;4.92;67.26;101467.34;5114264;27;20091;-80
2021/04/23 04:27:15;;;;;;;16.30;6.55;;;;;;;4.99;67.17;101483.06;5110348;28;20043;-81
2021/04/23 04:29:42;;;;;;;14.15;6.93;;;;;;;4.97;67.39;101474.31;5120705;27;21433;-81
2021/04/23 04:32:13;;;;;;;15.13;6.32;;;;;;;5.04;67.08;101487.38;5112055;27;20615;-80
2021/04/23 04:34:42;;;;;;;16.85;6.78;;;;;;;5.07;66.94;101487.34;5110748;27;20052;-79
2021/04/23 04:37:08;;;;;;;14.60;6.80;;;;;;;5.12;67.28;101488.19;5124090;27;20119;-80
2021/04/23 04:39:35;;;;;;;19.65;6.60;;;;;;;5.15;66.61;101488.19;5127188;28;20156;-81
2021/04/23 04:42:05;;;;;;;17.20;7.15;;;;;;;5.15;66.54;101493.44;5112735;27;20131;-79
2021/04/23 04:44:31;;;;;;;15.65;6.38;;;;;;;5.19;66.31;101497.78;5117675;27;20150;-80
2021/04/23 04:46:57;;;;;;;13.82;5.72;;;;;;;5.21;66.50;101495.13;5111399;28;20149;-80
2021/04/23 04:49:23;;;;;;;15.32;6.43;;;;;;;5.29;66.51;101496.81;5108865;27;20060;-79
2021/04/23 04:51:54;;;;;;;13.65;6.60;;;;;;;5.32;65.69;101500.31;5113373;27;20131;-82
2021/04/23 04:54:20;;;;;;;15.10;6.70;;;;;;;5.37;65.76;101514.25;5109956;27;20036;-80
2021/04/23 04:56:46;;;;;;;13.48;6.55;;;;;;;5.35;65.44;101511.69;5111272;28;20058;-80
2021/04/23 04:59:13;;;;;;;15.38;6.70;;;;;;;5.35;66.04;101509.06;5119905;27;20074;-80
2021/04/23 05:01:39;;;;;;;15.65;6.80;;;;;;;5.44;65.44;101513.34;5120533;27;20135;-79
2021/04/23 05:04:06;;;;;;;14.63;7.03;;;;;;;5.43;65.15;101520.34;5118750;28;20078;-79
2021/04/23 05:06:32;;;;;;;16.75;7.25;;;;;;;5.40;65.71;101517.75;5105851;28;20043;-84
2021/04/23 05:09:01;;;;;;;17.45;6.65;;;;;;;5.41;65.60;101522.13;5092280;28;20040;-80
2021/04/23 05:11:29;;;;;;;12.15;6.00;;;;;;;5.47;65.36;101529.09;5092060;28;20425;-80
2021/04/23 05:13:59;;;;;;;15.00;6.75;;;;;;;5.52;65.61;101527.28;5115198;27;20044;-82
2021/04/23 05:16:29;;;;;;;10.90;6.30;;;;;;;5.58;65.61;101536.00;5113241;27;20611;-84
2021/04/23 05:18:57;;;;;;;16.98;6.80;;;;;;;5.60;65.23;101534.22;5115019;27;20062;-81
2021/04/23 05:21:24;;;;;;;11.10;6.40;;;;;;;5.67;64.79;101536.81;5106914;27;20065;-83
2021/04/23 05:23:50;;;;;;;14.77;6.32;;;;;;;5.73;64.87;101544.63;5116002;27;20035;-80
2021/04/23 05:26:17;;;;;;;15.63;6.55;;;;;;;5.84;64.67;101542.75;5112284;28;20043;-82
2021/04/23 05:28:43;;;;;;;16.40;6.80;;;;;;;5.92;64.22;101547.09;5117135;28;20046;-81
2021/04/23 05:31:12;;;;;;;13.27;6.53;;;;;;;5.94;63.87;101550.59;5105756;27;20052;-80
2021/04/23 05:33:38;;;;;;;14.35;6.47;;;;;;;6.03;63.99;101556.63;5098732;28;20551;-82
2021/04/23 05:36:05;;;;;;;13.60;6.47;;;;;;;6.12;63.56;101556.56;5115233;27;20043;-81
2021/04/23 05:38:31;;;;;;;16.58;6.30;;;;;;;6.17;62.87;101558.25;5115294;27;20074;-82
2021/04/23 05:41:00;;;;;;;12.82;5.82;;;;;;;6.15;61.88;101556.50;5114470;28;20047;-81
2021/04/23 05:43:26;;;;;;;13.95;5.88;;;;;;;6.19;62.49;101560.84;5117665;27;20463;-83
2021/04/23 05:45:52;;;;;;;15.27;6.35;;;;;;;6.31;62.65;101573.88;5116335;27;20068;-82
2021/04/23 05:48:19;;;;;;;11.85;5.90;;;;;;;6.38;61.47;101567.66;5127667;27;20056;-79
2021/04/23 05:50:46;;;;;;;12.45;6.03;;;;;;;6.40;61.33;101576.41;5124239;28;20074;-83
2021/04/23 05:53:14;;;;;;;14.68;6.13;;;;;;;6.42;61.50;101568.53;5116050;27;20469;-81
2021/04/23 05:55:42;;;;;;;10.63;5.47;;;;;;;6.44;61.52;101567.63;5099530;27;20099;-82
2021/04/23 05:58:10;;;;;;;14.43;6.70;;;;;;;6.39;61.10;101582.56;5114173;28;20051;-83
2021/04/23 06:00:40;;;;;;;11.73;5.80;;;;;;;6.36;61.66;101581.72;5111245;27;20048;-81
2021/04/23 06:03:07;;;;;;;20.50;6.07;;;;;;;6.45;61.54;101569.34;5112489;28;20127;-81
2021/04/23 06:05:36;;;;;;;11.15;6.25;;;;;;;6.44;61.26;101572.00;5118766;27;20040;-83
2021/04/23 06:08:08;;;;;;;15.93;6.60;;;;;;;6.65;61.38;101582.25;5124699;27;20104;-81
2021/04/23 06:10:40;;;;;;;13.27;6.35;;;;;;;6.84;61.58;101581.16;5127263;27;20453;-83
2021/04/23 06:13:06;;;;;;;16.30;6.20;;;;;;;7.02;60.45;101578.28;5118614;27;20142;-81
2021/04/23 06:15:33;;;;;;;12.32;5.70;;;;;;;7.12;60.04;101573.75;5117250;27;20048;-79
2021/04/23 06:18:04;;;;;;;16.88;5.88;;;;;;;7.24;59.54;101570.09;5118775;28;20055;-82
2021/04/23 06:20:34;;;;;;;15.15;5.85;;;;;;;7.36;59.23;101559.38;5112630;28;20092;-80
2021/04/23 06:23:02;;;;;;;13.32;6.10;;;;;;;8.56;56.36;101559.00;5130720;28;20044;-81
2021/04/23 06:25:29;;;;;;;14.45;6.07;;;;;;;10.39;50.41;101558.19;5125822;27;20040;-79
2021/04/23 06:27:55;;;;;;;12.40;5.82;;;;;;;12.06;46.15;101562.69;5123932;27;20152;-82
2021/04/23 06:30:27;;;;;;;13.95;5.88;;;;;;;12.92;43.07;101554.19;5116539;27;20119;-82
2021/04/23 06:32:57;;;;;;;14.48;5.47;;;;;;;13.13;42.71;101578.22;5123675;27;20502;-79
2021/04/23 06:35:25;;;;;;;10.50;5.35;;;;;;;13.53;40.69;101581.09;5128148;27;20091;-79
2021/04/23 06:37:52;;;;;;;10.43;5.20;;;;;;;14.28;40.01;101554.84;5136038;27;20078;-80
2021/04/23 06:40:19;;;;;;;8.70;5.15;;;;;;;15.28;38.25;101575.13;5120022;27;20078;-80
2021/04/23 06:42:46;;;;;;;10.48;4.70;;;;;;;16.43;35.64;101569.34;5118532;27;20036;-81
2021/04/23 06:45:16;;;;;;;10.23;5.20;;;;;;;16.81;35.21;101569.16;5110761;27;20085;-82
2021/04/23 06:47:43;;;;;;;8.10;5.13;;;;;;;17.30;33.23;101582.50;5107399;27;21613;-82
2021/04/23 06:50:12;;;;;;;11.45;5.28;;;;;;;17.18;32.77;101579.53;5111277;27;20051;-81
2021/04/23 06:52:39;;;;;;;9.23;5.15;;;;;;;17.42;33.08;101582.66;5107401;27;20048;-81
2021/04/23 06:55:09;;;;;;;9.90;5.90;;;;;;;17.12;33.16;101579.91;5116809;27;20113;-82
2021/04/23 06:57:36;;;;;;;14.20;6.93;;;;;;;17.57;32.12;101575.56;5118619;27;20078;-79
2021/04/23 07:00:08;;;;;;;14.95;6.10;;;;;;;17.56;32.24;101581.88;5123277;27;20082;-81
2021/04/23 07:02:34;;;;;;;11.85;5.57;;;;;;;17.77;31.97;101572.63;5111958;27;20049;-82
2021/04/23 07:05:00;;;;;;;8.40;5.22;;;;;;;18.05;32.16;101566.50;5108512;27;20043;-80
2021/04/23 07:07:26;;;;;;;14.05;5.90;;;;;;;18.55;30.83;101571.50;5113551;27;20046;-79
2021/04/23 07:09:53;;;;;;;10.10;5.38;;;;;;;18.42;31.01;101572.31;5107622;28;20089;-82
2021/04/23 07:12:19;;;;;;;12.48;5.45;;;;;;;18.35;31.33;101584.38;5104804;28;20111;-82
2021/04/23 07:14:45;;;;;;;14.38;5.90;;;;;;;18.29;30.80;101577.56;5112703;27;20044;-81
2021/04/23 07:17:12;;;;;;;12.90;5.50;;;;;;;18.13;31.13;101580.31;5122106;27;20058;-80
2021/04/23 07:19:39;;;;;;;8.93;5.55;;;;;;;18.10;30.72;101585.84;5121384;28;20052;-83
2021/04/23 07:22:07;;;;;;;6.47;4.47;;;;;;;18.38;30.42;101589.56;5118693;27;20383;-81
2021/04/23 07:24:35;;;;;;;11.02;5.40;;;;;;;18.67;29.77;101585.13;5127994;28;20111;-81
2021/04/23 07:27:02;;;;;;;12.98;4.72;;;;;;;18.92;29.26;101590.69;5121513;28;20051;-82
2021/04/23 07:29:40;;;;;;;11.15;5.18;;;;;;;18.90;29.66;101587.22;5126516;28;20043;-81
2021/04/23 07:32:09;;;;;;;9.88;4.93;;;;;;;19.17;29.44;101580.13;5105275;27;20048;-79
2021/04/23 07:34:35;;;;;;;9.80;4.93;;;;;;;19.50;29.20;101581.63;5125302;28;20040;-80
2021/04/23 07:37:02;;;;;;;9.98;4.72;;;;;;;19.78;29.20;101581.53;5124229;28;20056;-81
2021/04/23 07:39:30;;;;;;;8.75;4.90;;;;;;;19.61;28.53;101584.47;5117785;28;20108;-80
2021/04/23 07:41:56;;;;;;;9.07;5.00;;;;;;;20.00;28.83;101588.13;5129510;28;20044;-81
2021/04/23 07:44:24;;;;;;;9.60;4.78;;;;;;;20.29;27.91;101587.91;5117879;27;21921;-82
2021/04/23 07:46:51;;;;;;;10.30;5.30;;;;;;;20.15;26.78;101587.09;5117653;27;20692;-84
2021/04/23 07:49:17;;;;;;;6.90;4.93;;;;;;;20.03;27.90;101594.19;5119229;27;20108;-80
2021/04/23 07:51:48;;;;;;;7.32;5.13;;;;;;;20.20;27.50;101599.28;5125781;27;20054;-83
2021/04/23 07:54:15;;;;;;;10.77;5.22;;;;;;;20.28;27.46;101593.38;5115114;27;20043;-81
2021/04/23 07:56:41;;;;;;;9.60;5.13;;;;;;;20.35;28.04;101593.81;5123728;27;20115;-81
2021/04/23 07:59:08;;;;;;;9.63;5.07;;;;;;;20.43;27.34;101604.94;5111177;27;20100;-82
2021/04/23 08:01:35;;;;;;;11.95;5.25;;;;;;;19.80;28.12;101606.50;5114787;27;20107;-82
2021/04/23 08:04:02;;;;;;;11.73;5.57;;;;;;;19.51;27.92;101584.22;5113734;27;20055;-81
2021/04/23 08:06:28;;;;;;;10.63;4.88;;;;;;;19.05;28.52;101593.47;5110510;28;20050;-82
2021/04/23 08:08:54;;;;;;;7.43;4.80;;;;;;;18.90;28.85;101592.59;5114354;27;20154;-85
2021/04/23 08:11:20;;;;;;;9.38;5.07;;;;;;;18.60;29.16;101594.50;5114642;27;20071;-84
2021/04/23 08:13:47;;;;;;;9.18;5.05;;;;;;;17.94;30.31;101602.94;5102469;27;20052;-82
2021/04/23 08:16:14;;;;;;;11.55;4.85;;;;;;;17.39;31.00;101604.25;5111772;27;20052;-83
2021/04/23 08:18:40;;;;;;;9.05;5.10;;;;;;;17.23;31.59;101603.38;5116671;27;20094;-83
2021/04/23 08:21:09;;;;;;;12.07;5.25;;;;;;;16.91;32.12;101594.44;5109524;28;20048;-81
2021/04/23 08:23:36;;;;;;;13.80;5.45;;;;;;;16.95;32.21;101587.97;5130971;27;20088;-83
2021/04/23 08:26:04;;;;;;;12.07;5.72;;;;;;;16.92;32.23;101593.50;5137634;27;20035;-82
2021/04/23 08:28:31;;;;;;;14.52;5.80;;;;;;;16.88;32.81;101577.69;5131432;27;20028;-81
2021/04/23 08:30:58;;;;;;;12.27;6.03;;;;;;;16.66;32.81;101591.38;5127918;27;20048;-82
2021/04/23 08:33:25;;;;;;;12.40;5.97;;;;;;;15.82;34.98;101593.00;5131984;27;20027;-84
2021/04/23 08:35:51;;;;;;;15.35;5.85;;;;;;;15.03;36.79;101592.31;5130221;27;20105;-82
2021/04/23 08:38:24;;;;;;;11.20;6.28;;;;;;;14.44;37.71;101599.50;5119711;27;20035;-81
2021/04/23 08:40:52;;;;;;;11.55;6.47;;;;;;;13.44;39.11;101599.22;5119327;27;20111;-83
2021/04/23 08:43:18;;;;;;;15.02;6.95;;;;;;;12.84;41.26;101577.56;5106336;27;20046;-83
2021/04/23 08:45:45;;;;;;;13.40;6.13;;;;;;;12.61;41.43;101577.53;5126085;28;20039;-80
2021/04/23 08:48:14;;;;;;;15.95;6.65;;;;;;;12.57;42.31;101587.44;5119348;27;20044;-80
2021/04/23 08:50:40;;;;;;;11.75;6.40;;;;;;;12.44;42.89;101585.25;5127266;27;20209;-81
2021/04/23 08:53:09;;;;;;;13.27;6.55;;;;;;;12.39;42.88;101593.38;5115067;27;20048;-82
2021/04/23 08:55:36;;;;;;;15.40;7.70;;;;;;;12.28;43.24;101591.09;5101481;28;20075;-80
2021/04/23 08:58:14;;;;;;;14.07;6.72;;;;;;;12.14;43.55;101582.75;5120754;27;20047;-82
2021/04/23 09:00:42;;;;;;;11.48;6.40;;;;;;;12.08;43.20;101582.09;5108539;27;20051;-82
2021/04/23 09:03:11;;;;;;;9.82;6.30;;;;;;;11.78;43.85;101573.38;5116395;27;20061;-83
2021/04/23 09:05:39;;;;;;;12.00;7.07;;;;;;;11.73;44.72;101586.78;5113834;27;20108;-82
2021/04/23 09:08:11;;;;;;;12.48;6.18;;;;;;;11.67;44.61;101589.59;5115778;27;20886;-86
2021/04/23 09:10:39;;;;;;;12.82;6.05;;;;;;;11.71;45.13;101572.69;5127268;27;20096;-80
2021/04/23 09:13:14;;;;;;;12.88;6.53;;;;;;;11.80;45.05;101579.53;5118784;27;20126;-83
2021/04/23 09:15:43;;;;;;;14.15;6.78;;;;;;;11.84;45.48;101586.44;5109415;27;20055;-82
2021/04/23 09:18:15;;;;;;;14.38;7.13;;;;;;;11.84;45.04;101591.75;5117092;27;20073;-82
2021/04/23 09:20:47;;;;;;;14.43;6.93;;;;;;;11.79;44.73;101583.97;5093406;28;20111;-84
2021/04/23 09:23:15;;;;;;;14.15;6.57;;;;;;;11.74;45.17;101583.19;5114252;27;21537;-82
2021/04/23 09:25:51;;;;;;;12.02;6.85;;;;;;;11.65;45.56;101588.78;5115226;27;20090;-82
2021/04/23 09:28:38;;;;;;;14.18;7.32;;;;;;;11.57;45.57;101596.13;5117257;27;20115;-83
2021/04/23 09:31:24;;;;;;;16.38;7.43;;;;;;;11.47;45.23;101590.28;5124724;27;20126;-83
2021/04/23 09:33:53;;;;;;;13.98;7.10;;;;;;;11.25;45.35;101582.09;5102082;28;20142;-82
2021/04/23 09:36:39;;;;;;;12.85;7.40;;;;;;;11.17;46.06;101600.03;5098517;27;20036;-82
2021/04/23 09:39:17;;;;;;;11.95;7.13;;;;;;;11.22;46.78;101586.63;5107288;28;20135;-80
2021/04/23 09:42:04;;;;;;;16.25;7.43;;;;;;;11.31;46.93;101586.38;5119146;27;20044;-82
2021/04/23 09:44:36;;;;;;;12.88;7.32;;;;;;;11.40;45.36;101578.09;5118435;28;20058;-82
2021/04/23 09:47:23;;;;;;;10.10;6.50;;;;;;;11.41;46.42;101582.50;5124353;28;20035;-84
2021/04/23 09:49:52;;;;;;;14.15;6.85;;;;;;;11.57;45.07;101583.75;5121264;27;20042;-80
2021/04/23 09:52:19;;;;;;;13.05;6.68;;;;;;;11.55;45.05;101582.06;5127334;27;20449;-82
2021/04/23 09:54:52;;;;;;;14.30;7.20;;;;;;;11.58;45.31;101585.47;5118798;27;20420;-81
2021/04/23 09:57:24;;;;;;;16.73;7.05;;;;;;;11.70;45.87;101591.31;5118233;27;20455;-82
2021/04/23 09:59:52;;;;;;;15.20;7.30;;;;;;;11.76;45.22;101576.09;5111767;27;20818;-82
2021/04/23 10:02:30;;;;;;;14.85;7.57;;;;;;;11.78;45.61;101570.72;5109943;27;20338;-83
2021/04/23 10:04:58;;;;;;;13.88;7.82;;;;;;;11.80;44.57;101572.44;5117993;27;20058;-81
2021/04/23 10:07:28;;;;;;;13.40;7.38;;;;;;;11.80;45.12;101561.81;5119252;28;20043;-83
2021/04/23 10:10:03;;;;;;;12.33;7.53;;;;;;;11.91;45.40;101562.31;5107592;28;20048;-79
2021/04/23 10:12:34;;;;;;;15.80;7.78;;;;;;;11.95;45.45;101565.72;5113187;27;20044;-82
2021/04/23 10:15:08;;;;;;;14.15;7.97;;;;;;;11.89;44.83;101565.94;5117356;27;20053;-80
2021/04/23 10:17:36;;;;;;;12.52;7.18;;;;;;;11.89;45.57;101565.94;5123803;27;20053;-83
2021/04/23 10:20:09;;;;;;;15.48;7.25;;;;;;;11.87;44.65;101559.78;5122293;28;20040;-82
2021/04/23 10:22:36;;;;;;;14.75;7.60;;;;;;;11.79;45.13;101567.16;5119262;27;20039;-80
2021/04/23 10:25:04;;;;;;;16.05;8.02;;;;;;;11.81;45.81;101557.34;5125493;27;20039;-81
2021/04/23 10:27:33;;;;;;;19.27;8.10;;;;;;;12.01;45.28;101559.31;5121372;28;20043;-79
2021/04/23 10:30:12;;;;;;;17.17;7.63;;;;;;;11.92;44.95;101556.09;5118702;27;20048;-81
2021/04/23 10:33:04;;;;;;;11.68;7.93;;;;;;;12.01;44.73;101554.88;5118322;27;20048;-79
2021/04/23 10:35:31;;;;;;;16.23;6.75;;;;;;;12.13;43.65;101559.75;5122970;27;20043;-83
2021/04/23 10:38:10;;;;;;;12.85;6.65;;;;;;;12.30;44.68;101568.00;5130000;27;20105;-84
2021/04/23 10:40:46;;;;;;;11.55;6.78;;;;;;;12.51;42.53;101554.88;5124039;27;20085;-81
2021/04/23 10:43:17;;;;;;;14.52;7.45;;;;;;;12.68;42.09;101549.81;5120771;27;20035;-80
2021/04/23 10:46:05;;;;;;;12.80;7.00;;;;;;;12.66;42.58;101554.31;5117411;28;20078;-80
2021/04/23 10:48:40;;;;;;;11.23;6.82;;;;;;;12.72;42.79;101554.09;5118914;28;20067;-81
2021/04/23 10:51:18;;;;;;;12.80;7.47;;;;;;;12.92;42.12;101551.53;5113673;28;20064;-83
2021/04/23 10:53:49;;;;;;;13.68;7.47;;;;;;;12.94;42.36;101549.69;5117352;27;20043;-82
2021/04/23 10:56:33;;;;;;;14.90;7.07;;;;;;;13.01;41.20;101547.66;5105179;27;20066;-82
2021/04/23 10:59:01;;;;;;;12.30;7.20;;;;;;;13.06;41.28;101547.50;5122411;27;20047;-83
2021/04/23 11:01:39;;;;;;;13.63;6.68;;;;;;;13.29;40.52;101551.00;5113375;27;20043;-80
2021/04/23 11:04:14;;;;;;;15.20;6.55;;;;;;;13.48;40.03;101559.13;5116169;27;20044;-81
2021/04/23 11:07:01;;;;;;;11.48;6.82;;;;;;;13.45;39.50;101551.25;5124867;27;20028;-82
2021/04/23 11:09:28;;;;;;;11.90;6.65;;;;;;;13.53;39.88;101530.53;5125227;27;20111;-84
2021/04/23 11:12:06;;;;;;;13.13;6.82;;;;;;;13.69;39.52;101544.91;5118595;28;20054;-84
2021/04/23 11:14:33;;;;;;;11.98;6.65;;;;;;;13.82;39.00;101536.44;5110211;28;20133;-84
2021/04/23 11:17:17;;;;;;;13.30;6.90;;;;;;;13.74;38.32;101536.75;5106522;28;20051;-84
2021/04/23 11:19:51;;;;;;;10.40;6.13;;;;;;;13.59;38.48;101527.59;5104432;27;20099;-83
2021/04/23 11:22:21;;;;;;;12.88;6.60;;;;;;;13.49;38.91;101539.56;5112457;27;20044;-83
2021/04/23 11:25:06;;;;;;;12.95;6.68;;;;;;;13.48;38.16;101529.84;5112766;28;20566;-83
2021/04/23 11:27:32;;;;;;;9.02;5.88;;;;;;;13.38;39.47;101527.63;5109945;27;20044;-84
2021/04/23 11:30:08;;;;;;;14.60;7.65;;;;;;;13.40;38.59;101523.97;5115718;28;20135;-84
2021/04/23 11:32:36;;;;;;;13.52;6.90;;;;;;;13.32;39.02;101512.78;5122087;28;20024;-83